createdAt,value
2022-10-18T00:03:04.987Z,14.00
2022-10-18T00:11:00.592Z,13.83
2022-10-18T00:14:43.243Z,13.68
2022-10-18T00:18:26.241Z,13.63
2022-10-18T00:22:08.869Z,13.60
2022-10-18T00:26:01.130Z,13.65
2022-10-18T00:29:43.777Z,13.72
2022-10-18T00:33:29.360Z,13.77
2022-10-18T00:37:11.993Z,13.81
2022-10-18T00:40:54.598Z,13.82
2022-10-18T00:45:17.061Z,13.86
2022-10-18T00:49:02.640Z,13.79
2022-10-18T00:52:49.178Z,13.72
2022-10-18T00:56:31.925Z,13.64
2022-10-18T01:00:15.140Z,13.57
2022-10-18T01:03:58.522Z,13.53
2022-10-18T01:08:19.477Z,13.55
2022-10-18T01:12:13.791Z,13.55
2022-10-18T01:16:00.173Z,13.60
2022-10-18T01:20:03.816Z,13.67
2022-10-18T01:24:29.755Z,13.65
2022-10-18T01:28:25.577Z,13.59
2022-10-18T01:32:12.353Z,13.59
2022-10-18T01:35:59.992Z,13.56
2022-10-18T01:39:45.303Z,13.53
2022-10-18T01:43:28.937Z,13.48
2022-10-18T01:47:14.554Z,13.44
2022-10-18T01:50:57.316Z,13.43
2022-10-18T01:54:43.582Z,13.47
2022-10-18T01:58:31.348Z,13.44
2022-10-18T02:02:22.247Z,13.40
2022-10-18T02:06:06.963Z,13.32
2022-10-18T02:09:53.933Z,13.17
2022-10-18T02:13:38.638Z,13.01
2022-10-18T02:17:22.752Z,12.86
2022-10-18T02:21:08.548Z,12.75
2022-10-18T02:24:53.543Z,12.62
2022-10-18T02:28:36.167Z,12.56
2022-10-18T02:32:23.983Z,12.57
2022-10-18T02:36:13.719Z,12.65
2022-10-18T02:39:56.301Z,12.67
2022-10-18T02:43:39.060Z,12.65
2022-10-18T02:47:23.051Z,12.61
2022-10-18T02:51:05.883Z,12.55
2022-10-18T02:54:48.507Z,12.45
2022-10-18T02:58:31.164Z,12.35
2022-10-18T03:02:15.928Z,12.20
2022-10-18T03:05:59.900Z,12.15
2022-10-18T03:09:42.521Z,12.15
2022-10-18T03:13:25.204Z,12.15
2022-10-18T03:17:08.160Z,12.13
2022-10-18T03:20:50.774Z,12.09
2022-10-18T03:24:34.822Z,12.05
2022-10-18T03:28:17.424Z,11.97
2022-10-18T03:32:00.056Z,11.97
2022-10-18T03:35:42.641Z,11.95
2022-10-18T03:39:25.284Z,11.94
2022-10-18T03:43:09.281Z,11.93
2022-10-18T03:46:51.872Z,11.97
2022-10-18T03:50:34.461Z,11.97
2022-10-18T03:54:17.253Z,11.98
2022-10-18T03:57:59.872Z,12.00
2022-10-18T04:01:43.868Z,12.00
2022-10-18T04:05:27.998Z,11.97
2022-10-18T04:09:11.202Z,11.95
2022-10-18T04:12:53.769Z,11.97
2022-10-18T04:20:25.384Z,11.97
2022-10-18T04:24:08.136Z,11.98
2022-10-18T04:27:50.799Z,12.00
2022-10-18T04:31:33.517Z,12.02
2022-10-18T04:35:16.278Z,11.97
2022-10-18T04:39:00.209Z,11.97
2022-10-18T04:42:42.807Z,11.94
2022-10-18T04:46:25.412Z,11.95
2022-10-18T04:50:08.675Z,11.93
2022-10-18T04:53:51.278Z,11.97
2022-10-18T04:57:35.322Z,12.02
2022-10-18T05:01:18.946Z,12.02
2022-10-18T05:05:03.924Z,12.01
2022-10-18T05:08:46.574Z,12.03
2022-10-18T05:12:29.387Z,12.08
2022-10-18T05:16:13.742Z,12.04
2022-10-18T05:19:56.362Z,11.98
2022-10-18T05:23:39.032Z,11.99
2022-10-18T05:27:21.706Z,12.06
2022-10-18T05:31:05.306Z,12.12
2022-10-18T05:34:49.277Z,12.11
2022-10-18T05:38:31.957Z,12.21
2022-10-18T05:42:14.671Z,12.33
2022-10-18T05:45:57.281Z,12.40
2022-10-18T05:49:39.922Z,12.41
2022-10-18T05:53:36.305Z,12.46
2022-10-18T05:57:19.617Z,12.52
2022-10-18T06:01:02.704Z,12.55
2022-10-18T06:04:45.332Z,12.59
2022-10-18T06:08:29.403Z,12.83
2022-10-18T06:12:12.125Z,12.98
2022-10-18T06:15:57.380Z,12.98
2022-10-18T06:19:40.514Z,12.94
2022-10-18T06:23:23.491Z,12.98
2022-10-18T06:27:09.296Z,13.03
2022-10-18T06:30:52.068Z,13.06
2022-10-18T06:34:35.163Z,13.12
2022-10-18T06:38:17.760Z,13.15
2022-10-18T06:42:00.411Z,13.15
2022-10-18T06:45:44.433Z,13.24
2022-10-18T06:49:27.099Z,13.37
2022-10-18T06:53:09.806Z,13.39
2022-10-18T06:56:52.453Z,13.41
2022-10-18T07:00:35.056Z,13.45
2022-10-18T07:04:19.034Z,13.48
2022-10-18T07:08:01.636Z,13.52
2022-10-18T07:11:44.232Z,13.56
2022-10-18T07:15:26.861Z,13.53
2022-10-18T07:19:09.506Z,13.57
2022-10-18T07:22:56.847Z,13.62
2022-10-18T07:26:39.435Z,13.68
2022-10-18T07:30:22.101Z,13.76
2022-10-18T07:34:04.948Z,13.83
2022-10-18T07:37:47.525Z,13.93
2022-10-18T07:41:33.321Z,14.04
2022-10-18T07:45:15.963Z,14.12
2022-10-18T07:48:59.555Z,14.20
2022-10-18T07:52:42.208Z,14.31
2022-10-18T07:56:24.811Z,14.37
2022-10-18T08:00:11.518Z,14.49
2022-10-18T08:03:54.836Z,14.61
2022-10-18T08:07:37.466Z,14.73
2022-10-18T08:11:22.280Z,14.85
2022-10-18T08:15:05.486Z,14.95
2022-10-18T08:18:49.638Z,14.98
2022-10-18T08:22:32.304Z,15.14
2022-10-18T08:26:16.459Z,15.33
2022-10-18T08:29:59.848Z,15.47
2022-10-18T08:33:46.171Z,15.82
2022-10-18T08:37:30.511Z,16.32
2022-10-18T08:41:31.241Z,16.99
2022-10-18T08:45:30.162Z,17.30
2022-10-18T08:49:24.078Z,17.42
2022-10-18T08:53:15.368Z,17.54
2022-10-18T08:57:01.812Z,17.77
2022-10-18T09:00:49.068Z,17.88
2022-10-18T09:04:40.926Z,17.95
2022-10-18T09:08:37.824Z,18.18
2022-10-18T09:12:36.754Z,18.25
2022-10-18T09:16:22.353Z,18.36
2022-10-18T09:20:19.536Z,18.40
2022-10-18T09:24:10.145Z,18.46
2022-10-18T09:27:57.516Z,18.58
2022-10-18T09:31:45.757Z,18.74
2022-10-18T09:35:31.677Z,18.92
2022-10-18T09:39:16.782Z,19.10
2022-10-18T09:43:01.786Z,19.29
2022-10-18T09:46:49.228Z,19.54
2022-10-18T09:50:37.521Z,19.63
2022-10-18T09:54:26.169Z,19.68
2022-10-18T09:58:09.295Z,19.72
2022-10-18T10:01:51.911Z,19.76
2022-10-18T10:05:34.522Z,19.73
2022-10-18T10:09:18.856Z,19.79
2022-10-18T10:13:08.101Z,19.59
2022-10-18T10:16:53.125Z,19.55
2022-10-18T10:20:38.822Z,19.47
2022-10-18T10:24:28.711Z,19.53
2022-10-18T10:28:17.113Z,19.58
2022-10-18T10:32:03.983Z,19.46
2022-10-18T10:35:53.612Z,19.58
2022-10-18T10:39:36.779Z,19.64
2022-10-18T10:43:39.962Z,19.53
2022-10-18T10:47:29.255Z,19.58
2022-10-18T10:51:12.231Z,19.63
2022-10-18T10:55:05.694Z,19.58
2022-10-18T10:58:57.149Z,19.82
2022-10-18T11:02:40.638Z,19.84
2022-10-18T11:06:41.524Z,20.05
2022-10-18T11:10:25.769Z,20.14
2022-10-18T11:14:25.798Z,20.28
2022-10-18T11:18:17.988Z,20.38
2022-10-18T11:22:03.090Z,20.40
2022-10-18T11:25:59.685Z,20.53
2022-10-18T11:29:58.405Z,20.52
2022-10-18T11:34:08.350Z,20.65
2022-10-18T11:38:05.063Z,20.87
2022-10-18T11:41:52.140Z,20.95
2022-10-18T11:45:41.944Z,21.07
2022-10-18T11:49:46.444Z,21.13
2022-10-18T11:53:35.032Z,21.38
2022-10-18T11:57:31.065Z,21.35
2022-10-18T12:01:27.680Z,21.36
2022-10-18T12:05:23.181Z,21.38
2022-10-18T12:09:14.423Z,21.53
2022-10-18T12:13:01.980Z,21.70
2022-10-18T12:16:51.476Z,21.82
2022-10-18T12:20:37.825Z,21.96
2022-10-18T12:24:23.913Z,22.18
2022-10-18T12:28:10.282Z,22.49
2022-10-18T12:31:56.284Z,22.69
2022-10-18T12:35:48.745Z,23.01
2022-10-18T12:39:43.571Z,23.12
2022-10-18T12:43:32.504Z,23.18
2022-10-18T12:47:23.615Z,23.23
2022-10-18T12:51:09.701Z,23.42
2022-10-18T12:55:03.797Z,23.33
2022-10-18T12:58:46.410Z,23.41
2022-10-18T13:02:32.017Z,23.27
2022-10-18T13:06:14.966Z,22.96
2022-10-18T13:10:40.323Z,22.79
2022-10-18T13:15:05.626Z,23.13
2022-10-18T13:18:54.702Z,23.30
2022-10-18T13:22:53.960Z,23.39
2022-10-18T13:26:43.370Z,23.40
2022-10-18T13:30:32.748Z,23.23
2022-10-18T13:34:27.266Z,23.12
2022-10-18T13:38:28.867Z,23.12
2022-10-18T13:42:30.765Z,23.11
2022-10-18T13:46:13.508Z,22.93
2022-10-18T13:50:30.545Z,22.72
2022-10-18T13:54:31.073Z,22.47
2022-10-18T13:58:20.111Z,22.30
2022-10-18T14:02:49.439Z,22.18
2022-10-18T14:06:24.973Z,22.00
2022-10-18T14:10:11.247Z,21.71
2022-10-18T14:13:57.052Z,21.28
2022-10-18T14:17:42.708Z,21.04
2022-10-18T14:21:33.683Z,20.95
2022-10-18T14:25:22.824Z,20.73
2022-10-18T14:29:07.191Z,20.82
2022-10-18T14:32:51.747Z,20.87
2022-10-18T14:36:40.744Z,20.83
2022-10-18T14:40:28.952Z,21.04
2022-10-18T14:44:21.071Z,21.36
2022-10-18T14:48:16.488Z,21.60
2022-10-18T14:52:01.540Z,21.58
2022-10-18T14:55:44.389Z,21.42
2022-10-18T14:59:28.218Z,21.36
2022-10-18T15:03:14.453Z,21.25
2022-10-18T15:06:57.181Z,21.15
2022-10-18T15:10:41.837Z,21.16
2022-10-18T15:14:26.078Z,21.06
2022-10-18T15:18:09.163Z,20.97
2022-10-18T15:22:19.884Z,20.80
2022-10-18T15:26:05.751Z,20.63
2022-10-18T15:29:48.571Z,20.49
2022-10-18T15:33:34.519Z,20.58
2022-10-18T15:37:19.868Z,20.47
2022-10-18T15:41:04.536Z,20.40
2022-10-18T15:44:50.862Z,20.28
2022-10-18T15:48:36.201Z,20.25
2022-10-18T15:52:37.745Z,20.19
2022-10-18T15:56:32.204Z,20.17
2022-10-18T16:00:19.939Z,20.12
2022-10-18T16:04:06.628Z,20.05
2022-10-18T16:07:52.511Z,20.00
2022-10-18T16:11:36.484Z,19.95
2022-10-18T16:15:19.586Z,19.92
2022-10-18T16:19:02.380Z,19.86
2022-10-18T16:22:44.973Z,19.72
2022-10-18T16:26:29.163Z,19.55
2022-10-18T16:30:15.921Z,19.41
2022-10-18T16:33:59.038Z,19.27
2022-10-18T16:37:41.758Z,19.15
2022-10-18T16:41:24.622Z,18.99
2022-10-18T16:45:08.061Z,18.83
2022-10-18T16:48:52.539Z,18.65
2022-10-18T16:52:35.438Z,18.48
2022-10-18T16:56:23.359Z,18.34
2022-10-18T17:00:06.654Z,18.22
2022-10-18T17:03:52.012Z,18.12
2022-10-18T17:07:36.032Z,18.00
2022-10-18T17:11:19.328Z,17.91
2022-10-18T17:15:02.019Z,17.77
2022-10-18T17:18:44.646Z,17.72
2022-10-18T17:22:27.349Z,17.68
2022-10-18T17:26:27.960Z,17.63
2022-10-18T17:30:13.449Z,17.61
2022-10-18T17:33:56.194Z,17.56
2022-10-18T17:37:42.712Z,17.49
2022-10-18T17:41:29.463Z,17.46
2022-10-18T17:45:12.632Z,17.43
2022-10-18T17:48:55.380Z,17.42
2022-10-18T17:56:30.955Z,17.30
2022-10-18T18:00:16.218Z,17.25
2022-10-18T18:04:01.129Z,17.21
2022-10-18T18:07:44.123Z,17.22
2022-10-18T18:11:27.048Z,17.22
2022-10-18T18:15:10.035Z,17.21
2022-10-18T18:18:55.740Z,17.20
2022-10-18T18:22:41.752Z,17.18
2022-10-18T18:26:25.314Z,17.20
2022-10-18T18:30:08.736Z,17.17
2022-10-18T18:33:52.103Z,17.14
2022-10-18T18:37:36.095Z,17.12
2022-10-18T18:41:20.199Z,17.09
2022-10-18T18:45:04.241Z,17.08
2022-10-18T18:48:46.905Z,17.08
2022-10-18T18:52:29.609Z,17.08
2022-10-18T18:56:15.346Z,17.07
2022-10-18T18:59:58.143Z,17.03
2022-10-18T19:03:41.569Z,17.03
2022-10-18T19:07:24.693Z,16.97
2022-10-18T19:11:09.343Z,16.93
2022-10-18T19:14:53.659Z,16.91
2022-10-18T19:18:36.450Z,16.87
2022-10-18T19:22:19.078Z,16.88
2022-10-18T19:26:11.040Z,16.77
2022-10-18T19:29:55.006Z,16.70
2022-10-18T19:33:48.084Z,16.65
2022-10-18T19:37:38.368Z,16.60
2022-10-18T19:41:21.430Z,16.61
2022-10-18T19:45:06.218Z,16.62
2022-10-18T19:48:48.850Z,16.63
2022-10-18T19:52:32.647Z,16.57
2022-10-18T19:56:19.093Z,16.50
2022-10-18T20:00:03.534Z,16.44
2022-10-18T20:03:49.686Z,16.40
2022-10-18T20:07:32.543Z,16.37
2022-10-18T20:11:16.994Z,16.36
2022-10-18T20:14:59.860Z,16.30
2022-10-18T20:18:44.092Z,16.23
2022-10-18T20:22:28.290Z,16.16
2022-10-18T20:26:18.321Z,16.16
2022-10-18T20:30:05.319Z,16.10
2022-10-18T20:33:55.606Z,16.06
2022-10-18T20:37:39.618Z,16.04
2022-10-18T20:41:24.084Z,15.99
2022-10-18T20:45:08.741Z,15.85
2022-10-18T20:48:52.202Z,15.70
2022-10-18T20:52:34.871Z,15.62
2022-10-18T20:56:21.458Z,15.54
2022-10-18T21:00:05.174Z,15.48
2022-10-18T21:03:49.532Z,15.57
2022-10-18T21:07:32.460Z,15.41
2022-10-18T21:11:15.489Z,15.40
2022-10-18T21:14:59.654Z,15.40
2022-10-18T21:18:42.327Z,15.43
2022-10-18T21:22:25.085Z,15.41
2022-10-18T21:26:08.107Z,15.34
2022-10-18T21:29:53.717Z,15.33
2022-10-18T21:33:37.708Z,15.33
2022-10-18T21:37:20.895Z,15.34
2022-10-18T21:41:08.625Z,15.32
2022-10-18T21:44:51.220Z,15.28
2022-10-18T21:48:34.821Z,15.24
2022-10-18T21:52:18.809Z,15.18
2022-10-18T21:56:06.711Z,15.17
2022-10-18T21:59:49.305Z,15.16
2022-10-18T22:03:32.312Z,15.16
2022-10-18T22:07:14.929Z,15.18
2022-10-18T22:11:02.132Z,15.21
2022-10-18T22:14:44.846Z,15.26
2022-10-18T22:18:27.526Z,15.27
2022-10-18T22:22:11.006Z,15.25
2022-10-18T22:25:54.408Z,15.21
2022-10-18T22:29:38.756Z,15.12
2022-10-18T22:33:23.392Z,15.10
2022-10-18T22:38:02.718Z,15.03
2022-10-18T22:41:45.764Z,15.00
2022-10-18T22:45:29.729Z,15.04
2022-10-18T22:49:12.936Z,15.09
2022-10-18T22:52:55.605Z,15.10
2022-10-18T22:56:38.258Z,15.09
2022-10-18T23:00:21.076Z,15.09
2022-10-18T23:04:05.429Z,15.06
2022-10-18T23:07:51.129Z,15.03
2022-10-18T23:11:34.849Z,15.04
2022-10-18T23:15:17.673Z,15.06
2022-10-18T23:19:00.899Z,15.07
2022-10-18T23:22:44.891Z,15.09
2022-10-18T23:26:29.050Z,15.12
2022-10-18T23:30:12.466Z,15.19
2022-10-18T23:33:57.949Z,15.25
2022-10-18T23:37:40.557Z,15.29
2022-10-18T23:41:24.791Z,15.31
2022-10-18T23:45:08.980Z,15.33
2022-10-18T23:48:51.675Z,15.39
2022-10-18T23:52:34.321Z,15.47
2022-10-18T23:56:17.454Z,15.53
